Time;durP1;ratioP1;P1;durP2;ratioP2;P2;SDS_P1;SDS_P2;PMS_P1;PMS_P2;Temp;Humidity;BMP_temperature;BMP_pressure;BME280_temperature;BME280_humidity;BME280_pressure;Samples;Min_cycle;Max_cycle;Signal;HPM_P1;HPM_P2
2022/04/02 00:00:38;;;;;;;;;;;;;;;-145.06;0.00;60892.56;4689792;29;20426;-84
2022/04/02 00:03:17;;;;;;;;;;;;;;;-145.06;0.00;60892.56;4701682;29;19924;-85
2022/04/02 00:05:56;;;;;;;;;;;;;;;-145.06;0.00;60892.56;4690138;29;19924;-84
2022/04/02 00:08:35;;;;;;;;;;;;;;;-145.06;0.00;60892.56;4693925;29;19920;-85
2022/04/02 00:11:14;;;;;;;;;;;;;;;-145.06;0.00;60892.56;4691963;29;19919;-84
2022/04/02 00:13:54;;;;;;;;;;;;;;;-145.06;0.00;60892.56;4690060;29;20371;-85
2022/04/02 00:16:32;;;;;;;;;;;;;;;-145.06;0.00;60892.56;4682063;29;19920;-85
2022/04/02 00:19:11;;;;;;;;;;;;;;;-145.06;0.00;60892.56;4687052;29;20374;-84
2022/04/02 00:21:50;;;;;;;;;;;;;;;-145.06;0.00;60892.56;4695430;29;19920;-85
2022/04/02 00:24:30;;;;;;;;;;;;;;;-145.06;0.00;60892.56;4691180;29;19923;-85
2022/04/02 00:27:09;;;;;;;;;;;;;;;-145.06;0.00;60892.56;4695273;29;19920;-84
2022/04/02 00:29:49;;;;;;;;;;;;;;;-145.06;0.00;60892.56;4683791;29;19920;-84
2022/04/02 00:32:29;;;;;;;;;;;;;;;-145.06;0.00;60892.56;4689392;29;19916;-84
2022/04/02 00:35:09;;;;;;;;;;;;;;;-145.06;0.00;60892.56;4689919;29;20252;-84
2022/04/02 00:37:47;;;;;;;;;;;;;;;-145.06;0.00;60892.56;4693464;29;20671;-84
2022/04/02 00:40:27;;;;;;;;;;;;;;;-145.06;0.00;60892.56;4689465;29;19924;-84
2022/04/02 00:43:06;;;;;;;;;;;;;;;-145.06;0.00;60892.56;4690064;29;19916;-84
2022/04/02 00:45:45;;;;;;;;;;;;;;;-145.06;0.00;60892.56;4688269;29;19916;-85
2022/04/02 00:48:25;;;;;;;;;;;;;;;-145.06;0.00;60892.56;4690175;29;20264;-84
2022/04/02 00:51:07;;;;;;;;;;;;;;;-145.06;0.00;60892.56;4690822;29;20359;-84
2022/04/02 00:53:50;;;;;;;;;;;;;;;-145.06;0.00;60892.56;4694573;29;19915;-84
2022/04/02 00:56:29;;;;;;;;;;;;;;;-145.06;0.00;60892.56;4700150;29;19952;-84
2022/04/02 00:59:08;;;;;;;;;;;;;;;-145.06;0.00;60892.56;4705069;29;20416;-84
2022/04/02 01:01:47;;;;;;;;;;;;;;;-145.06;0.00;60892.56;4698035;29;19916;-84
2022/04/02 01:04:27;;;;;;;;;;;;;;;-145.06;0.00;60892.56;4695382;29;19916;-84
2022/04/02 01:07:06;;;;;;;;;;;;;;;-145.06;0.00;60892.56;4689383;29;19915;-84
2022/04/02 01:09:45;;;;;;;;;;;;;;;-145.06;0.00;60892.56;4693179;29;19915;-85
2022/04/02 01:12:24;;;;;;;;;;;;;;;-145.06;0.00;60892.56;4692410;29;20034;-84
2022/04/02 01:15:03;;;;;;;;;;;;;;;-145.06;0.00;60892.56;4689839;29;19987;-84
2022/04/02 01:17:42;;;;;;;;;;;;;;;-145.06;0.00;60892.56;4695810;29;19916;-85
2022/04/02 01:20:22;;;;;;;;;;;;;;;-145.06;0.00;60892.56;4690219;29;19915;-85
2022/04/02 01:23:02;;;;;;;;;;;;;;;-145.06;0.00;60892.56;4691813;29;19920;-85
2022/04/02 01:25:41;;;;;;;;;;;;;;;-145.06;0.00;60892.56;4695186;29;20279;-84
2022/04/02 01:28:20;;;;;;;;;;;;;;;-145.06;0.00;60892.56;4692346;29;20006;-85
2022/04/02 01:31:06;;;;;;;;;;;;;;;-145.06;0.00;60892.56;4688432;29;19916;-85
2022/04/02 01:33:45;;;;;;;;;;;;;;;-145.06;0.00;60892.56;4695947;29;19916;-85
2022/04/02 01:36:24;;;;;;;;;;;;;;;-145.06;0.00;60892.56;4692722;29;19919;-85
2022/04/02 01:39:03;;;;;;;;;;;;;;;-145.06;0.00;60892.56;4688143;29;19920;-85
2022/04/02 01:41:42;;;;;;;;;;;;;;;-145.06;0.00;60892.56;4703902;29;20267;-84
2022/04/02 01:44:21;;;;;;;;;;;;;;;-145.06;0.00;60892.56;4683557;29;19919;-85
2022/04/02 01:47:00;;;;;;;;;;;;;;;-145.06;0.00;60892.56;4693838;29;19923;-85
2022/04/02 01:49:39;;;;;;;;;;;;;;;-145.06;0.00;60892.56;4686960;29;19916;-84
2022/04/02 01:52:19;;;;;;;;;;;;;;;-145.06;0.00;60892.56;4688370;29;19967;-85
2022/04/02 01:54:58;;;;;;;;;;;;;;;-145.06;0.00;60892.56;4688234;29;19916;-85
2022/04/02 01:57:37;;;;;;;;;;;;;;;-145.06;0.00;60892.56;4706273;29;19912;-86
2022/04/02 02:00:16;;;;;;;;;;;;;;;-145.06;0.00;60892.56;4707554;29;20248;-86
2022/04/02 02:02:55;;;;;;;;;;;;;;;-145.06;0.00;60892.56;4694965;29;19920;-86
2022/04/02 02:05:35;;;;;;;;;;;;;;;-145.06;0.00;60892.56;4689147;29;19916;-86
2022/04/02 02:08:13;;;;;;;;;;;;;;;-145.06;0.00;60892.56;4686730;29;20357;-85
2022/04/02 02:10:52;;;;;;;;;;;;;;;-145.06;0.00;60892.56;4701031;29;20406;-85
2022/04/02 02:13:31;;;;;;;;;;;;;;;-145.06;0.00;60892.56;4679794;29;20260;-86
2022/04/02 02:16:10;;;;;;;;;;;;;;;-145.06;0.00;60892.56;4698064;29;19959;-86
2022/04/02 02:18:50;;;;;;;;;;;;;;;-145.06;0.00;60892.56;4687218;29;19924;-85
2022/04/02 02:21:29;;;;;;;;;;;;;;;-145.06;0.00;60892.56;4700622;29;19951;-86
2022/04/02 02:24:08;;;;;;;;;;;;;;;-145.06;0.00;60892.56;4692201;29;19920;-86
2022/04/02 02:26:47;;;;;;;;;;;;;;;-145.06;0.00;60892.56;4702658;29;19915;-86
2022/04/02 02:29:26;;;;;;;;;;;;;;;-145.06;0.00;60892.56;4694023;29;19911;-86
2022/04/02 02:32:05;;;;;;;;;;;;;;;-145.06;0.00;60892.56;4708889;29;19959;-86
2022/04/02 02:37:42;;;;;;;;;;;;;;;-145.06;0.00;60892.56;4698795;29;19912;-86
2022/04/02 02:40:21;;;;;;;;;;;;;;;-145.06;0.00;60892.56;4689011;29;20006;-85
2022/04/02 02:43:00;;;;;;;;;;;;;;;-145.06;0.00;60892.56;4690903;29;20007;-85
2022/04/02 02:45:39;;;;;;;;;;;;;;;-145.06;0.00;60892.56;4685301;29;20272;-84
2022/04/02 02:48:18;;;;;;;;;;;;;;;-145.06;0.00;60892.56;4699817;29;19996;-86
2022/04/02 02:50:57;;;;;;;;;;;;;;;-145.06;0.00;60892.56;4696994;29;19916;-86
2022/04/02 02:53:36;;;;;;;;;;;;;;;-145.06;0.00;60892.56;4684992;29;19919;-86
2022/04/02 02:56:15;;;;;;;;;;;;;;;-145.06;0.00;60892.56;4692805;29;19915;-85
2022/04/02 02:58:54;;;;;;;;;;;;;;;-145.06;0.00;60892.56;4693605;29;19920;-86
2022/04/02 03:01:33;;;;;;;;;;;;;;;-145.06;0.00;60892.56;4693463;29;19916;-86
2022/04/02 03:04:12;;;;;;;;;;;;;;;-145.06;0.00;60892.56;4696191;29;20469;-86
2022/04/02 03:06:51;;;;;;;;;;;;;;;-145.06;0.00;60892.56;4703638;29;20514;-86
2022/04/02 03:09:30;;;;;;;;;;;;;;;-145.06;0.00;60892.56;4686286;29;19943;-86
2022/04/02 03:12:10;;;;;;;;;;;;;;;-145.06;0.00;60892.56;4698484;29;19916;-86
2022/04/02 03:14:49;;;;;;;;;;;;;;;-145.06;0.00;60892.56;4693421;29;19920;-87
2022/04/02 03:17:30;;;;;;;;;;;;;;;-145.06;0.00;60892.56;4686534;29;19920;-86
2022/04/02 03:20:11;;;;;;;;;;;;;;;-145.06;0.00;60892.56;4687078;29;19953;-86
2022/04/02 03:22:51;;;;;;;;;;;;;;;-145.06;0.00;60892.56;4697792;29;19919;-86
2022/04/02 03:25:31;;;;;;;;;;;;;;;-145.06;0.00;60892.56;4693844;29;20024;-86
2022/04/02 03:28:10;;;;;;;;;;;;;;;-145.06;0.00;60892.56;4691869;29;19920;-85
2022/04/02 03:30:49;;;;;;;;;;;;;;;-145.06;0.00;60892.56;4689899;29;19946;-86
2022/04/02 03:33:28;;;;;;;;;;;;;;;-145.06;0.00;60892.56;4702211;29;19920;-84
2022/04/02 03:36:10;;;;;;;;;;;;;;;-145.06;0.00;60892.56;4687076;29;20393;-85
2022/04/02 03:38:49;;;;;;;;;;;;;;;-145.06;0.00;60892.56;4683359;29;19924;-86
2022/04/02 03:41:28;;;;;;;;;;;;;;;-145.06;0.00;60892.56;4696928;29;19916;-85
2022/04/02 03:44:06;;;;;;;;;;;;;;;-145.06;0.00;60892.56;4698374;29;19912;-86
2022/04/02 03:49:44;;;;;;;;;;;;;;;-145.06;0.00;60892.56;4692365;29;19920;-87
2022/04/02 03:52:24;;;;;;;;;;;;;;;-145.06;0.00;60892.56;4689253;29;19920;-86
2022/04/02 03:55:04;;;;;;;;;;;;;;;-145.06;0.00;60892.56;4688263;29;19915;-85
2022/04/02 03:57:47;;;;;;;;;;;;;;;-145.06;0.00;60892.56;4692637;29;20259;-86
2022/04/02 04:00:26;;;;;;;;;;;;;;;-145.06;0.00;60892.56;4697813;29;19920;-86
2022/04/02 04:03:05;;;;;;;;;;;;;;;-145.06;0.00;60892.56;4687237;29;20359;-86
2022/04/02 04:05:44;;;;;;;;;;;;;;;-145.06;0.00;60892.56;4688473;29;19920;-86
2022/04/02 04:08:23;;;;;;;;;;;;;;;-145.06;0.00;60892.56;4699068;29;19916;-86
2022/04/02 04:11:02;;;;;;;;;;;;;;;-145.06;0.00;60892.56;4680008;29;19994;-86
2022/04/02 04:13:41;;;;;;;;;;;;;;;-145.06;0.00;60892.56;4696123;29;19920;-86
2022/04/02 04:16:20;;;;;;;;;;;;;;;-145.06;0.00;60892.56;4693745;29;19920;-85
2022/04/02 04:18:59;;;;;;;;;;;;;;;-145.06;0.00;60892.56;4692548;29;19928;-86
2022/04/02 04:21:38;;;;;;;;;;;;;;;-145.06;0.00;60892.56;4685803;29;19915;-85
2022/04/02 04:24:17;;;;;;;;;;;;;;;-145.06;0.00;60892.56;4686649;29;20007;-86
2022/04/02 04:26:56;;;;;;;;;;;;;;;-145.06;0.00;60892.56;4686016;29;19994;-86
2022/04/02 04:29:36;;;;;;;;;;;;;;;-145.06;0.00;60892.56;4688664;29;20367;-86
2022/04/02 04:32:15;;;;;;;;;;;;;;;-145.06;0.00;60892.56;4684508;29;19919;-86
2022/04/02 04:34:54;;;;;;;;;;;;;;;-145.06;0.00;60892.56;4688569;29;20003;-85
2022/04/02 04:37:36;;;;;;;;;;;;;;;-145.06;0.00;60892.56;4678726;29;19920;-87
2022/04/02 04:40:15;;;;;;;;;;;;;;;-145.06;0.00;60892.56;4706846;29;19924;-84
2022/04/02 04:42:54;;;;;;;;;;;;;;;-145.06;0.00;60892.56;4693020;29;19916;-85
2022/04/02 04:45:36;;;;;;;;;;;;;;;-145.06;0.00;60892.56;4683880;29;19919;-87
2022/04/02 04:48:15;;;;;;;;;;;;;;;-145.06;0.00;60892.56;4705979;29;19916;-85
2022/04/02 04:50:54;;;;;;;;;;;;;;;-145.06;0.00;60892.56;4695816;29;20351;-86
2022/04/02 04:53:34;;;;;;;;;;;;;;;-145.06;0.00;60892.56;4688570;29;19920;-85
2022/04/02 04:56:13;;;;;;;;;;;;;;;-145.06;0.00;60892.56;4690968;29;19916;-86
2022/04/02 04:58:52;;;;;;;;;;;;;;;-145.06;0.00;60892.56;4710498;29;19912;-85
2022/04/02 05:01:31;;;;;;;;;;;;;;;-145.06;0.00;60892.56;4705071;29;19924;-85
2022/04/02 05:04:11;;;;;;;;;;;;;;;-145.06;0.00;60892.56;4689606;29;20500;-86
2022/04/02 05:06:49;;;;;;;;;;;;;;;-145.06;0.00;60892.56;4685454;29;19920;-86
2022/04/02 05:09:29;;;;;;;;;;;;;;;-145.06;0.00;60892.56;4683294;29;20002;-86
2022/04/02 05:12:08;;;;;;;;;;;;;;;-145.06;0.00;60892.56;4688094;29;19920;-85
2022/04/02 05:14:48;;;;;;;;;;;;;;;-145.06;0.00;60892.56;4682870;29;19916;-85
2022/04/02 05:17:27;;;;;;;;;;;;;;;-145.06;0.00;60892.56;4693771;29;19916;-86
2022/04/02 05:20:14;;;;;;;;;;;;;;;-145.06;0.00;60892.56;4688608;29;19920;-85
2022/04/02 05:22:53;;;;;;;;;;;;;;;-145.06;0.00;60892.56;4699229;29;20512;-86
2022/04/02 05:25:35;;;;;;;;;;;;;;;-145.06;0.00;60892.56;4687844;29;20006;-85
2022/04/02 05:28:14;;;;;;;;;;;;;;;-145.06;0.00;60892.56;4687699;29;20359;-86
2022/04/02 05:30:54;;;;;;;;;;;;;;;-145.06;0.00;60892.56;4689110;29;19920;-87
2022/04/02 05:33:33;;;;;;;;;;;;;;;-145.06;0.00;60892.56;4688178;29;19920;-86
2022/04/02 05:36:12;;;;;;;;;;;;;;;-145.06;0.00;60892.56;4686563;29;20030;-86
2022/04/02 05:38:51;;;;;;;;;;;;;;;-145.06;0.00;60892.56;4685526;29;20260;-87
2022/04/02 05:41:30;;;;;;;;;;;;;;;-145.06;0.00;60892.56;4688559;29;19920;-86
2022/04/02 05:44:08;;;;;;;;;;;;;;;-145.06;0.00;60892.56;4682149;29;19919;-87
2022/04/02 05:46:48;;;;;;;;;;;;;;;-145.06;0.00;60892.56;4686598;29;19912;-87
2022/04/02 05:49:27;;;;;;;;;;;;;;;-145.06;0.00;60892.56;4690248;29;20367;-87
2022/04/02 05:52:07;;;;;;;;;;;;;;;-145.06;0.00;60892.56;4693146;29;19920;-87
2022/04/02 05:54:45;;;;;;;;;;;;;;;-145.06;0.00;60892.56;4685333;29;19934;-86
2022/04/02 05:57:24;;;;;;;;;;;;;;;-145.06;0.00;60892.56;4691375;29;20375;-87
2022/04/02 06:00:04;;;;;;;;;;;;;;;-145.06;0.00;60892.56;4688909;29;20276;-87
2022/04/02 06:02:44;;;;;;;;;;;;;;;-145.06;0.00;60892.56;4693201;29;20572;-86
2022/04/02 06:05:23;;;;;;;;;;;;;;;-145.06;0.00;60892.56;4686187;29;20732;-87
2022/04/02 06:08:02;;;;;;;;;;;;;;;-145.06;0.00;60892.56;4684479;29;19916;-87
2022/04/02 06:10:41;;;;;;;;;;;;;;;-145.06;0.00;60892.56;4683423;29;19916;-87
2022/04/02 06:13:20;;;;;;;;;;;;;;;-145.06;0.00;60892.56;4691245;29;19924;-87
2022/04/02 06:15:59;;;;;;;;;;;;;;;-145.06;0.00;60892.56;4698169;29;19924;-87
2022/04/02 06:18:38;;;;;;;;;;;;;;;-145.06;0.00;60892.56;4690331;29;19920;-86
2022/04/02 06:21:18;;;;;;;;;;;;;;;-145.06;0.00;60892.56;4696656;29;20279;-87
2022/04/02 06:23:57;;;;;;;;;;;;;;;-145.06;0.00;60892.56;4695779;29;20260;-86
2022/04/02 06:26:35;;;;;;;;;;;;;;;-145.06;0.00;60892.56;4697666;29;20288;-87
2022/04/02 06:29:14;;;;;;;;;;;;;;;-145.06;0.00;60892.56;4689795;29;19916;-86
2022/04/02 06:31:53;;;;;;;;;;;;;;;-145.06;0.00;60892.56;4697715;29;19916;-87
2022/04/02 06:34:32;;;;;;;;;;;;;;;-145.06;0.00;60892.56;4688625;29;19916;-87
2022/04/02 06:37:11;;;;;;;;;;;;;;;-145.06;0.00;60892.56;4690848;29;20322;-86
2022/04/02 06:39:51;;;;;;;;;;;;;;;-145.06;0.00;60892.56;4681472;29;19928;-86
2022/04/02 06:42:30;;;;;;;;;;;;;;;-145.06;0.00;60892.56;4699098;29;19916;-85
2022/04/02 06:45:10;;;;;;;;;;;;;;;-145.06;0.00;60892.56;4693079;29;19924;-86
2022/04/02 06:47:49;;;;;;;;;;;;;;;-145.06;0.00;60892.56;4689514;29;20390;-86
2022/04/02 06:50:28;;;;;;;;;;;;;;;-145.06;0.00;60892.56;4699784;29;19919;-87
2022/04/02 06:53:07;;;;;;;;;;;;;;;-145.06;0.00;60892.56;4690904;29;19920;-86
2022/04/02 06:55:46;;;;;;;;;;;;;;;-145.06;0.00;60892.56;4698501;29;20347;-86
2022/04/02 06:58:27;;;;;;;;;;;;;;;-145.06;0.00;60892.56;4690684;29;19916;-87
2022/04/02 07:01:06;;;;;;;;;;;;;;;-145.06;0.00;60892.56;4696840;29;19951;-86
2022/04/02 07:03:45;;;;;;;;;;;;;;;-145.06;0.00;60892.56;4691051;29;19999;-87
2022/04/02 07:06:24;;;;;;;;;;;;;;;-145.06;0.00;60892.56;4688851;29;20002;-86
2022/04/02 07:09:04;;;;;;;;;;;;;;;-145.06;0.00;60892.56;4688493;29;19920;-86
2022/04/02 07:11:44;;;;;;;;;;;;;;;-145.06;0.00;60892.56;4690685;29;19919;-87
2022/04/02 07:14:23;;;;;;;;;;;;;;;-145.06;0.00;60892.56;4689681;29;19920;-86
2022/04/02 07:17:02;;;;;;;;;;;;;;;-145.06;0.00;60892.56;4687998;29;19916;-86
2022/04/02 07:19:41;;;;;;;;;;;;;;;-145.06;0.00;60892.56;4689686;29;19920;-86
2022/04/02 07:22:21;;;;;;;;;;;;;;;-145.06;0.00;60892.56;4695018;29;19950;-85
2022/04/02 07:25:00;;;;;;;;;;;;;;;-145.06;0.00;60892.56;4690089;29;19959;-86
2022/04/02 07:27:40;;;;;;;;;;;;;;;-145.06;0.00;60892.56;4695258;29;19947;-86
2022/04/02 07:30:19;;;;;;;;;;;;;;;-145.06;0.00;60892.56;4687284;29;19967;-86
2022/04/02 07:32:58;;;;;;;;;;;;;;;-145.06;0.00;60892.56;4688631;29;19923;-85
2022/04/02 07:35:41;;;;;;;;;;;;;;;-145.06;0.00;60892.56;4696118;29;19916;-86
2022/04/02 07:38:22;;;;;;;;;;;;;;;-145.06;0.00;60892.56;4690129;29;19924;-87
2022/04/02 07:41:12;;;;;;;;;;;;;;;-145.06;0.00;60892.56;4688747;29;19920;-86
2022/04/02 07:43:54;;;;;;;;;;;;;;;-145.06;0.00;60892.56;4685923;29;19916;-85
2022/04/02 07:46:33;;;;;;;;;;;;;;;-145.06;0.00;60892.56;4689185;29;19920;-86
2022/04/02 07:49:12;;;;;;;;;;;;;;;-145.06;0.00;60892.56;4694671;29;19920;-86
2022/04/02 07:51:55;;;;;;;;;;;;;;;-145.06;0.00;60892.56;4685908;29;19920;-86
2022/04/02 07:54:37;;;;;;;;;;;;;;;-145.06;0.00;60892.56;4684055;29;19919;-85
2022/04/02 07:57:16;;;;;;;;;;;;;;;-145.06;0.00;60892.56;4688517;29;19920;-86
2022/04/02 07:59:59;;;;;;;;;;;;;;;-145.06;0.00;60892.56;4688582;29;20264;-87
2022/04/02 08:02:39;;;;;;;;;;;;;;;187.52;0.00;60892.56;4686065;29;20343;-86
2022/04/02 08:05:19;;;;;;;;;;;;;;;-145.06;0.00;60892.56;4697770;29;19920;-85
2022/04/02 08:07:58;;;;;;;;;;;;;;;-145.06;0.00;60892.56;4683341;29;19920;-87
2022/04/02 08:10:37;;;;;;;;;;;;;;;187.52;0.00;60892.56;4681368;29;20014;-86
2022/04/02 08:13:16;;;;;;;;;;;;;;;-145.06;0.00;60892.56;4682781;29;19920;-87
2022/04/02 08:15:56;;;;;;;;;;;;;;;187.52;0.00;60892.56;4681930;29;20668;-86
2022/04/02 08:18:35;;;;;;;;;;;;;;;-145.06;0.00;60892.56;4683382;29;19920;-86
2022/04/02 08:21:14;;;;;;;;;;;;;;;-145.06;0.00;60892.56;4682029;29;19920;-87
2022/04/02 08:23:53;;;;;;;;;;;;;;;-145.06;0.00;60892.56;4680458;29;19920;-86
2022/04/02 08:26:35;;;;;;;;;;;;;;;-145.06;0.00;60892.56;4685199;29;19919;-86
2022/04/02 08:29:24;;;;;;;;;;;;;;;-145.06;0.00;60892.56;4684759;29;19955;-87
2022/04/02 08:32:06;;;;;;;;;;;;;;;-145.06;0.00;60892.56;4683142;29;19920;-86
2022/04/02 08:35:03;;;;;;;;;;;;;;;-145.06;0.00;60892.56;4915086;27;19920;-85
2022/04/02 08:37:42;;;;;;;;;;;;;;;-145.06;0.00;60892.56;4903215;28;19956;-86
2022/04/02 08:40:30;;;;;;;;;;;;;;;-145.06;0.00;60892.56;4901880;28;19999;-85
2022/04/02 08:43:31;;;;;;;;;;;;;;;-145.06;0.00;60892.56;4905075;28;19924;-85
2022/04/02 08:46:39;;;;;;;;;;;;;;;-145.06;0.00;60892.56;4897503;28;19924;-85
2022/04/02 08:49:38;;;;;;;;;;;;;;;-145.06;0.00;60892.56;4894102;28;19967;-86
2022/04/02 08:52:22;;;;;;;;;;;;;;;-145.06;0.00;60892.56;4902576;28;19924;-85
2022/04/02 08:55:10;;;;;;;;;;;;;;;-145.06;0.00;60892.56;4904475;28;20262;-85
2022/04/02 08:57:49;;;;;;;;;;;;;;;-145.06;0.00;60892.56;4898901;28;19924;-86
2022/04/02 09:00:34;;;;;;;;;;;;;;;-145.06;0.00;60892.56;4900738;28;19920;-85
2022/04/02 09:03:36;;;;;;;;;;;;;;;-145.06;0.00;60892.56;4902723;28;20444;-86
2022/04/02 09:06:15;;;;;;;;;;;;;;;-145.06;0.00;60892.56;4884555;28;19920;-86
2022/04/02 09:09:00;;;;;;;;;;;;;;;-145.06;0.00;60892.56;4901236;28;19921;-86
2022/04/02 09:12:09;;;;;;;;;;;;;;;-145.06;0.00;60892.56;4903478;28;19924;-86
2022/04/02 09:15:07;;;;;;;;;;;;;;;-145.06;0.00;60892.56;4893210;28;20263;-85
2022/04/02 09:18:00;;;;;;;;;;;;;;;-145.06;0.00;60892.56;4899328;28;19963;-86
2022/04/02 09:20:42;;;;;;;;;;;;;;;-145.06;0.00;60892.56;4908718;28;20414;-86
2022/04/02 09:23:25;;;;;;;;;;;;;;;-145.06;0.00;60892.56;4906095;28;20003;-86
2022/04/02 09:26:19;;;;;;;;;;;;;;;-145.06;0.00;60892.56;4904709;28;19920;-86
2022/04/02 09:29:01;;;;;;;;;;;;;;;-145.06;0.00;60892.56;4901681;28;19920;-86
2022/04/02 09:31:40;;;;;;;;;;;;;;;-145.06;0.00;60892.56;4899260;28;19924;-85
2022/04/02 09:34:31;;;;;;;;;;;;;;;-145.06;0.00;60892.56;4915151;28;20290;-87
2022/04/02 09:37:20;;;;;;;;;;;;;;;-145.06;0.00;60892.56;4910360;28;20322;-86
2022/04/02 09:40:02;;;;;;;;;;;;;;;-145.06;0.00;60892.56;4924157;27;20057;-85
2022/04/02 09:42:41;;;;;;;;;;;;;;;-145.06;0.00;60892.56;4911832;28;20023;-86
2022/04/02 09:45:21;;;;;;;;;;;;;;;-145.06;0.00;60892.56;4893930;28;19920;-85
2022/04/02 09:48:19;;;;;;;;;;;;;;;-145.06;0.00;60892.56;4896397;28;20286;-86
2022/04/02 09:51:01;;;;;;;;;;;;;;;-145.06;0.00;60892.56;4914528;28;19920;-86
2022/04/02 09:53:46;;;;;;;;;;;;;;;-145.06;0.00;60892.56;4897776;28;19928;-85
2022/04/02 09:56:33;;;;;;;;;;;;;;;-145.06;0.00;60892.56;4913470;28;19924;-86
2022/04/02 09:59:19;;;;;;;;;;;;;;;-145.06;0.00;60892.56;4910359;28;19920;-85
2022/04/02 10:02:03;;;;;;;;;;;;;;;-145.06;0.00;60892.56;4912321;28;20452;-84
2022/04/02 10:04:41;;;;;;;;;;;;;;;-145.06;0.00;60892.56;4910355;28;19924;-86
2022/04/02 10:07:36;;;;;;;;;;;;;;;-145.06;0.00;60892.56;4895224;28;19920;-86
2022/04/02 10:10:15;;;;;;;;;;;;;;;-145.06;0.00;60892.56;4891232;28;20543;-85
2022/04/02 10:12:55;;;;;;;;;;;;;;;-145.06;0.00;60892.56;4911063;28;19924;-86
2022/04/02 10:15:36;;;;;;;;;;;;;;;-145.06;0.00;60892.56;4912222;28;19916;-85
2022/04/02 10:18:17;;;;;;;;;;;;;;;-145.06;0.00;60892.56;4909667;28;19920;-86
2022/04/02 10:20:57;;;;;;;;;;;;;;;-145.06;0.00;60892.56;4918798;28;19916;-85
2022/04/02 10:23:39;;;;;;;;;;;;;;;-145.06;0.00;60892.56;4904964;28;19916;-86
2022/04/02 10:26:20;;;;;;;;;;;;;;;-145.06;0.00;60892.56;4895363;28;20369;-85
2022/04/02 10:29:06;;;;;;;;;;;;;;;-145.06;0.00;60892.56;4898415;28;19920;-86
2022/04/02 10:32:00;;;;;;;;;;;;;;;-145.06;0.00;60892.56;4908477;28;19912;-86
2022/04/02 10:34:39;;;;;;;;;;;;;;;-145.06;0.00;60892.56;4903641;28;20270;-87
2022/04/02 10:37:18;;;;;;;;;;;;;;;-145.06;0.00;60892.56;4921201;28;20600;-86
2022/04/02 10:40:00;;;;;;;;;;;;;;;-145.06;0.00;60892.56;4909643;28;19916;-86
2022/04/02 10:43:02;;;;;;;;;;;;;;;-145.06;0.00;60892.56;4931066;28;20418;-88
2022/04/02 10:45:41;;;;;;;;;;;;;;;-145.06;0.00;60892.56;4916179;28;20270;-87
2022/04/02 10:48:27;;;;;;;;;;;;;;;-145.06;0.00;60892.56;4930464;28;19920;-87
2022/04/02 10:51:07;;;;;;;;;;;;;;;-145.06;0.00;60892.56;4910526;28;19912;-87
2022/04/02 10:53:46;;;;;;;;;;;;;;;187.52;0.00;60892.56;4899824;28;19920;-87
2022/04/02 10:56:27;;;;;;;;;;;;;;;-145.06;0.00;60892.56;4899239;28;19912;-86
2022/04/02 10:59:07;;;;;;;;;;;;;;;187.52;0.00;60892.56;4911253;28;19912;-87
2022/04/02 11:01:49;;;;;;;;;;;;;;;-145.06;0.00;60892.56;4915047;28;20413;-87
2022/04/02 11:04:56;;;;;;;;;;;;;;;-145.06;0.00;60892.56;4900090;28;19916;-86
2022/04/02 11:07:40;;;;;;;;;;;;;;;-145.06;0.00;60892.56;4902629;28;20417;-86
2022/04/02 11:10:21;;;;;;;;;;;;;;;-145.06;0.00;60892.56;4905306;28;19920;-87
2022/04/02 11:13:00;;;;;;;;;;;;;;;-145.06;0.00;60892.56;4891588;28;19924;-86
2022/04/02 11:15:43;;;;;;;;;;;;;;;-145.06;0.00;60892.56;4922392;28;19919;-86
2022/04/02 11:18:22;;;;;;;;;;;;;;;-145.06;0.00;60892.56;4916295;28;19916;-86
2022/04/02 11:21:02;;;;;;;;;;;;;;;-145.06;0.00;60892.56;4917712;28;19911;-85
2022/04/02 11:23:52;;;;;;;;;;;;;;;-145.06;0.00;60892.56;4902924;28;19916;-86
2022/04/02 11:26:33;;;;;;;;;;;;;;;-145.06;0.00;60892.56;4905202;28;19920;-86
2022/04/02 11:29:12;;;;;;;;;;;;;;;-145.06;0.00;60892.56;4902475;28;19917;-86
2022/04/02 11:31:53;;;;;;;;;;;;;;;-145.06;0.00;60892.56;4904239;28;19920;-86
2022/04/02 11:34:35;;;;;;;;;;;;;;;-145.06;0.00;60892.56;4898542;28;19920;-86
2022/04/02 11:37:15;;;;;;;;;;;;;;;-145.06;0.00;60892.56;4909912;28;19913;-86
2022/04/02 11:39:56;;;;;;;;;;;;;;;-145.06;0.00;60892.56;4907862;28;20484;-86
2022/04/02 11:42:38;;;;;;;;;;;;;;;-145.06;0.00;60892.56;4916385;28;19916;-85
2022/04/02 11:45:19;;;;;;;;;;;;;;;-145.06;0.00;60892.56;4923474;28;19960;-85
2022/04/02 11:48:07;;;;;;;;;;;;;;;-145.06;0.00;60892.56;4911332;28;20255;-86
2022/04/02 11:50:45;;;;;;;;;;;;;;;-145.06;0.00;60892.56;4906027;28;19916;-85
2022/04/02 11:53:36;;;;;;;;;;;;;;;-145.06;0.00;60892.56;4906755;28;20018;-85
2022/04/02 11:56:29;;;;;;;;;;;;;;;-145.06;0.00;60892.56;4905993;28;19920;-86
2022/04/02 11:59:08;;;;;;;;;;;;;;;-145.06;0.00;60892.56;4893596;28;19920;-86
2022/04/02 12:01:51;;;;;;;;;;;;;;;-145.06;0.00;60892.56;4902065;28;19916;-86
2022/04/02 12:04:30;;;;;;;;;;;;;;;-145.06;0.00;60892.56;4917152;28;19916;-86
2022/04/02 12:07:09;;;;;;;;;;;;;;;-145.06;0.00;60892.56;4920713;28;19952;-86
2022/04/02 12:09:50;;;;;;;;;;;;;;;-145.06;0.00;60892.56;4908568;28;20361;-86
2022/04/02 12:12:29;;;;;;;;;;;;;;;-145.06;0.00;60892.56;4898315;28;19948;-86
2022/04/02 12:15:09;;;;;;;;;;;;;;;-145.06;0.00;60892.56;4884447;28;19924;-86
2022/04/02 12:17:52;;;;;;;;;;;;;;;-145.06;0.00;60892.56;4934974;28;19915;-86
2022/04/02 12:20:40;;;;;;;;;;;;;;;-145.06;0.00;60892.56;4910354;28;20030;-86
2022/04/02 12:23:19;;;;;;;;;;;;;;;-145.06;0.00;60892.56;4913581;28;19920;-86
2022/04/02 12:25:59;;;;;;;;;;;;;;;-145.06;0.00;60892.56;4907250;28;19916;-86
2022/04/02 12:28:42;;;;;;;;;;;;;;;-145.06;0.00;60892.56;4913717;28;19916;-85
2022/04/02 12:31:22;;;;;;;;;;;;;;;-145.06;0.00;60892.56;4900768;28;20456;-86
2022/04/02 12:34:01;;;;;;;;;;;;;;;-145.06;0.00;60892.56;4908146;28;19920;-87
2022/04/02 12:36:43;;;;;;;;;;;;;;;-145.06;0.00;60892.56;4907474;28;20508;-85
2022/04/02 12:39:25;;;;;;;;;;;;;;;-145.06;0.00;60892.56;4898337;28;19916;-85
2022/04/02 12:42:04;;;;;;;;;;;;;;;-145.06;0.00;60892.56;4898762;28;20310;-85
2022/04/02 12:44:43;;;;;;;;;;;;;;;-145.06;0.00;60892.56;4885966;28;19920;-85
2022/04/02 12:47:23;;;;;;;;;;;;;;;-145.06;0.00;60892.56;4921077;28;20266;-85
2022/04/02 12:50:12;;;;;;;;;;;;;;;10.68;0.00;60892.56;4882533;28;19916;-86
2022/04/02 12:52:51;;;;;;;;;;;;;;;-145.06;0.00;60892.56;4893534;28;20011;-86
2022/04/02 12:55:32;;;;;;;;;;;;;;;-145.06;0.00;60892.56;4903519;28;19924;-85
2022/04/02 12:58:12;;;;;;;;;;;;;;;-145.06;0.00;60892.56;4907545;28;19920;-86
2022/04/02 13:00:51;;;;;;;;;;;;;;;-145.06;0.00;60892.56;4902692;28;19917;-85
2022/04/02 13:03:35;;;;;;;;;;;;;;;-145.06;0.00;60892.56;4915233;28;20008;-85
2022/04/02 13:06:17;;;;;;;;;;;;;;;-145.06;0.00;60892.56;4928146;28;19916;-86
2022/04/02 13:08:56;;;;;;;;;;;;;;;-145.06;0.00;60892.56;4889456;28;20011;-84
2022/04/02 13:11:34;;;;;;;;;;;;;;;-145.06;0.00;60892.56;4901741;28;20253;-86
2022/04/02 13:14:18;;;;;;;;;;;;;;;-145.06;0.00;60892.56;4883237;28;19921;-85
2022/04/02 13:17:08;;;;;;;;;;;;;;;-145.06;0.00;60892.56;4909107;28;20349;-85
2022/04/02 13:22:45;;;;;;;;;;;;;;;-145.06;0.00;60892.56;4915352;28;19916;-85
2022/04/02 13:25:24;;;;;;;;;;;;;;;-145.06;0.00;60892.56;4890105;28;19916;-85
2022/04/02 13:28:04;;;;;;;;;;;;;;;-145.06;0.00;60892.56;4890103;28;19971;-85
2022/04/02 13:30:48;;;;;;;;;;;;;;;-145.06;0.00;60892.56;4895399;28;20263;-85
2022/04/02 13:33:29;;;;;;;;;;;;;;;-145.06;0.00;60892.56;4925908;28;19940;-85
2022/04/02 13:36:08;;;;;;;;;;;;;;;-145.06;0.00;60892.56;4910390;28;20251;-85
2022/04/02 13:38:52;;;;;;;;;;;;;;;-145.06;0.00;60892.56;4896754;28;19967;-84
2022/04/02 13:41:32;;;;;;;;;;;;;;;-145.06;0.00;60892.56;4893904;28;19920;-85
2022/04/02 13:44:14;;;;;;;;;;;;;;;-145.06;0.00;60892.56;4908683;28;19924;-85
2022/04/02 13:46:55;;;;;;;;;;;;;;;-145.06;0.00;60892.56;4891576;28;19916;-85
2022/04/02 13:49:36;;;;;;;;;;;;;;;-145.06;0.00;60892.56;4894926;28;19920;-85
2022/04/02 13:52:20;;;;;;;;;;;;;;;-145.06;0.00;60892.56;4902562;28;19916;-85
2022/04/02 13:55:07;;;;;;;;;;;;;;;-145.06;0.00;60892.56;4889724;28;19928;-84
2022/04/02 13:57:49;;;;;;;;;;;;;;;-145.06;0.00;60892.56;4897448;28;20014;-85